Time;durP1;ratioP1;P1;durP2;ratioP2;P2;SDS_P1;SDS_P2;PMS_P1;PMS_P2;Temp;Humidity;BMP_temperature;BMP_pressure;BME280_temperature;BME280_humidity;BME280_pressure;Samples;Min_cycle;Max_cycle;Signal;HPM_P1;HPM_P2
2021/10/13 00:01:38;;;;;;;4.10;3.25;;;10.00;90.00;;;;;;5072869;28;20028;-75
2021/10/13 00:04:04;;;;;;;8.05;3.45;;;9.90;90.20;;;;;;5072689;28;20505;-75
2021/10/13 00:06:30;;;;;;;3.72;2.80;;;9.90;90.00;;;;;;5072763;28;20025;-75
2021/10/13 00:08:55;;;;;;;4.45;2.60;;;9.90;90.00;;;;;;5072126;28;20040;-75
2021/10/13 00:11:21;;;;;;;6.65;3.30;;;9.90;90.00;;;;;;5072450;28;20034;-75
2021/10/13 00:13:46;;;;;;;4.97;2.85;;;9.80;90.20;;;;;;5071481;28;20051;-75
2021/10/13 00:16:14;;;;;;;4.40;2.70;;;9.80;90.20;;;;;;5072404;28;20467;-75
2021/10/13 00:18:39;;;;;;;4.50;3.10;;;9.80;90.00;;;;;;5071564;28;20387;-75
2021/10/13 00:21:06;;;;;;;4.13;3.33;;;9.80;90.50;;;;;;5070172;28;20020;-76
2021/10/13 00:23:31;;;;;;;4.70;3.33;;;9.80;90.40;;;;;;5067784;28;20036;-75
2021/10/13 00:25:57;;;;;;;3.22;2.83;;;9.70;90.50;;;;;;5072050;28;20021;-76
2021/10/13 00:28:23;;;;;;;5.65;2.80;;;9.70;90.90;;;;;;5072205;28;20063;-76
2021/10/13 00:30:48;;;;;;;3.08;2.78;;;9.80;90.10;;;;;;5069323;28;20025;-76
2021/10/13 00:33:14;;;;;;;3.42;2.72;;;9.80;90.00;;;;;;5071759;28;20101;-75
2021/10/13 00:35:40;;;;;;;3.70;2.80;;;9.80;90.00;;;;;;5070396;28;20108;-76
2021/10/13 00:38:05;;;;;;;3.35;2.85;;;9.90;90.00;;;;;;5072184;28;20108;-75
2021/10/13 00:40:31;;;;;;;4.18;3.22;;;9.80;90.50;;;;;;5070734;28;20067;-76
2021/10/13 00:42:57;;;;;;;8.57;3.42;;;9.80;90.40;;;;;;5072160;28;20021;-76
2021/10/13 00:45:23;;;;;;;5.63;3.03;;;9.80;90.50;;;;;;5070310;28;20028;-75
2021/10/13 00:47:49;;;;;;;4.55;3.20;;;9.70;90.70;;;;;;5070938;28;20513;-76
2021/10/13 00:50:15;;;;;;;7.32;3.00;;;9.70;90.90;;;;;;5066866;28;20028;-76
2021/10/13 00:52:42;;;;;;;3.50;2.92;;;9.70;90.70;;;;;;5072982;28;20078;-76
2021/10/13 00:55:20;;;;;;;5.43;3.22;;;9.70;90.90;;;;;;5070523;28;20028;-75
2021/10/13 00:57:47;;;;;;;3.42;2.53;;;9.80;90.80;;;;;;5071893;28;20024;-76
2021/10/13 01:00:15;;;;;;;2.90;2.60;;;9.80;90.40;;;;;;5070489;28;20043;-76
2021/10/13 01:02:58;;;;;;;3.53;2.63;;;9.70;90.40;;;;;;5071583;28;20043;-76
2021/10/13 01:05:44;;;;;;;4.68;3.28;;;9.70;90.30;;;;;;5069988;28;20025;-76
2021/10/13 01:08:22;;;;;;;4.65;3.28;;;9.70;90.80;;;;;;5059074;28;20040;-76
2021/10/13 01:11:09;;;;;;;3.60;3.00;;;9.70;90.60;;;;;;5070807;28;20082;-76
2021/10/13 01:13:41;;;;;;;4.15;2.90;;;9.60;90.90;;;;;;5069729;28;20020;-75
2021/10/13 01:16:13;;;;;;;4.45;3.30;;;9.60;90.90;;;;;;5069536;28;20021;-76
2021/10/13 01:18:51;;;;;;;2.90;2.70;;;9.60;90.70;;;;;;5071090;28;20506;-76
2021/10/13 01:21:44;;;;;;;4.07;3.03;;;9.60;90.70;;;;;;5070397;28;20282;-76
2021/10/13 01:24:27;;;;;;;7.20;3.00;;;9.70;90.70;;;;;;5070453;28;20052;-76
2021/10/13 01:27:02;;;;;;;7.40;2.80;;;9.70;90.60;;;;;;5070811;28;20027;-76
2021/10/13 01:29:30;;;;;;;4.07;2.58;;;9.70;90.50;;;;;;5069819;28;20032;-75
2021/10/13 01:32:11;;;;;;;5.35;3.13;;;9.70;90.20;;;;;;5061888;28;20024;-75
2021/10/13 01:34:42;;;;;;;5.78;3.08;;;9.80;90.30;;;;;;5070260;28;20029;-75
2021/10/13 01:37:13;;;;;;;4.70;2.95;;;9.80;90.50;;;;;;5069539;28;20536;-76
2021/10/13 01:39:45;;;;;;;4.18;2.80;;;9.80;90.30;;;;;;5068522;28;20032;-75
2021/10/13 01:42:15;;;;;;;5.13;2.92;;;9.80;90.40;;;;;;5071083;28;20557;-75
2021/10/13 01:44:41;;;;;;;3.53;2.40;;;9.80;90.40;;;;;;5070103;28;20028;-76
2021/10/13 01:47:09;;;;;;;3.95;2.90;;;9.70;90.20;;;;;;5069559;28;20079;-75
2021/10/13 01:49:35;;;;;;;3.55;3.15;;;9.70;90.40;;;;;;5068852;28;20044;-75
2021/10/13 01:52:04;;;;;;;5.65;3.30;;;9.70;90.20;;;;;;5070652;28;20395;-75
2021/10/13 01:54:31;;;;;;;3.38;2.85;;;9.70;90.10;;;;;;5062321;28;20032;-76
2021/10/13 01:57:00;;;;;;;7.30;3.20;;;9.80;90.10;;;;;;5071036;28;20021;-76
2021/10/13 01:59:28;;;;;;;4.47;3.00;;;9.80;90.20;;;;;;5068944;28;20055;-75
2021/10/13 02:01:57;;;;;;;4.10;2.70;;;9.80;90.30;;;;;;5069785;28;20111;-75
2021/10/13 02:04:24;;;;;;;3.47;3.17;;;9.80;90.00;;;;;;5061210;28;20085;-75
2021/10/13 02:06:51;;;;;;;5.13;2.95;;;9.80;90.00;;;;;;5070873;28;20047;-75
2021/10/13 02:09:23;;;;;;;3.63;2.95;;;9.80;90.00;;;;;;5070051;28;20040;-76
2021/10/13 02:11:49;;;;;;;3.92;2.90;;;9.80;90.30;;;;;;5067159;28;20020;-75
2021/10/13 02:14:17;;;;;;;5.25;2.65;;;9.80;90.40;;;;;;5070320;28;20035;-76
2021/10/13 02:16:47;;;;;;;3.88;3.10;;;9.70;90.00;;;;;;5070949;28;20506;-76
2021/10/13 02:19:15;;;;;;;3.97;3.10;;;9.70;90.20;;;;;;5061158;28;20035;-76
2021/10/13 02:21:48;;;;;;;11.23;3.10;;;9.60;90.60;;;;;;5067391;28;20028;-76
2021/10/13 02:24:33;;;;;;;5.15;2.90;;;9.50;90.70;;;;;;5070059;28;20111;-75
2021/10/13 02:27:05;;;;;;;3.65;3.30;;;9.50;90.90;;;;;;5070769;28;20025;-75
2021/10/13 02:29:31;;;;;;;5.67;3.60;;;9.40;91.00;;;;;;5069998;28;20135;-76
2021/10/13 02:31:57;;;;;;;4.32;3.10;;;9.30;91.00;;;;;;5068997;28;20108;-75
2021/10/13 02:34:23;;;;;;;4.22;3.03;;;9.30;91.20;;;;;;5070126;28;20043;-75
2021/10/13 02:36:48;;;;;;;4.22;2.90;;;9.30;91.10;;;;;;5071353;28;20032;-75
2021/10/13 02:39:14;;;;;;;4.72;2.83;;;9.30;91.60;;;;;;5072696;28;20040;-75
2021/10/13 02:41:40;;;;;;;4.78;3.05;;;9.30;91.00;;;;;;5074628;28;20048;-75
2021/10/13 02:44:07;;;;;;;3.33;2.63;;;9.30;91.20;;;;;;5073877;28;20077;-75
2021/10/13 02:46:39;;;;;;;5.10;2.90;;;9.30;91.10;;;;;;5067567;28;20102;-75
2021/10/13 02:49:28;;;;;;;7.28;2.63;;;9.20;91.40;;;;;;5073259;28;20032;-75
2021/10/13 02:52:08;;;;;;;4.70;3.05;;;9.20;91.10;;;;;;5064823;28;20443;-75
2021/10/13 02:54:58;;;;;;;3.88;3.08;;;9.20;91.40;;;;;;5073162;28;20035;-75
2021/10/13 02:57:32;;;;;;;3.10;2.78;;;9.20;91.00;;;;;;5071381;28;20029;-75
2021/10/13 03:00:01;;;;;;;3.45;2.72;;;9.30;91.30;;;;;;5071870;28;20036;-75
2021/10/13 03:02:34;;;;;;;3.55;2.63;;;9.30;91.30;;;;;;5073294;28;20399;-75
2021/10/13 03:05:01;;;;;;;4.40;2.80;;;9.40;91.30;;;;;;5088517;28;20466;-75
2021/10/13 03:07:31;;;;;;;5.10;2.78;;;9.40;91.10;;;;;;5067643;28;20471;-75
2021/10/13 03:10:00;;;;;;;3.85;3.08;;;9.50;91.10;;;;;;5073824;28;20024;-75
2021/10/13 03:12:39;;;;;;;5.35;3.15;;;9.50;90.70;;;;;;5073893;28;20025;-75
2021/10/13 03:15:07;;;;;;;4.85;2.97;;;9.60;90.70;;;;;;5081952;28;20021;-76
2021/10/13 03:17:35;;;;;;;4.80;3.22;;;9.60;90.60;;;;;;5064970;28;20028;-75
2021/10/13 03:20:02;;;;;;;4.28;2.97;;;9.50;91.00;;;;;;5073386;28;20391;-76
2021/10/13 03:22:29;;;;;;;5.65;2.75;;;9.50;90.70;;;;;;5071681;28;20390;-75
2021/10/13 03:24:55;;;;;;;3.97;3.33;;;9.40;90.90;;;;;;5073352;28;20025;-75
2021/10/13 03:27:27;;;;;;;3.85;3.08;;;9.30;91.00;;;;;;5068677;28;20108;-75
2021/10/13 03:29:53;;;;;;;4.18;2.95;;;9.30;91.20;;;;;;5087497;28;20392;-75
2021/10/13 03:32:19;;;;;;;4.75;2.75;;;9.20;91.40;;;;;;5071998;28;20036;-75
2021/10/13 03:34:45;;;;;;;3.65;2.83;;;9.10;91.60;;;;;;5073365;28;20067;-75
2021/10/13 03:37:13;;;;;;;3.90;2.97;;;9.10;91.70;;;;;;5072314;28;20067;-75
2021/10/13 03:39:39;;;;;;;6.35;3.20;;;9.10;91.90;;;;;;5072165;28;20490;-75
2021/10/13 03:42:05;;;;;;;5.68;3.10;;;9.00;91.90;;;;;;5073623;28;20054;-75
2021/10/13 03:44:30;;;;;;;4.15;2.72;;;9.00;92.00;;;;;;5072856;28;20028;-75
2021/10/13 03:46:56;;;;;;;4.68;3.05;;;9.00;92.30;;;;;;5069031;28;20045;-76
2021/10/13 03:49:22;;;;;;;4.78;3.28;;;9.00;92.50;;;;;;5071637;28;20487;-76
2021/10/13 03:51:48;;;;;;;4.95;3.03;;;8.90;92.50;;;;;;5072822;28;20028;-75
2021/10/13 03:54:13;;;;;;;3.58;2.75;;;8.90;92.30;;;;;;5072667;28;20024;-75
2021/10/13 03:56:39;;;;;;;3.63;2.88;;;9.00;92.50;;;;;;5061984;28;20029;-76
2021/10/13 03:59:04;;;;;;;3.97;3.00;;;8.90;92.40;;;;;;5070799;28;21323;-75
2021/10/13 04:01:30;;;;;;;4.72;2.78;;;8.90;92.20;;;;;;5072441;28;20032;-75
2021/10/13 04:03:56;;;;;;;4.32;3.10;;;8.90;92.10;;;;;;5072762;28;20025;-75
2021/10/13 04:06:22;;;;;;;6.10;3.10;;;8.90;92.50;;;;;;5072864;28;20103;-75
2021/10/13 04:08:48;;;;;;;5.63;3.25;;;8.90;92.40;;;;;;5070953;28;20037;-75
2021/10/13 04:11:13;;;;;;;3.70;3.08;;;8.90;92.40;;;;;;5073117;28;20030;-75
2021/10/13 04:13:39;;;;;;;3.45;2.90;;;8.90;92.50;;;;;;5068568;28;20021;-75
2021/10/13 04:16:05;;;;;;;6.68;3.10;;;8.90;92.90;;;;;;5072811;28;20431;-75
2021/10/13 04:18:30;;;;;;;4.30;3.35;;;8.90;92.80;;;;;;5072315;28;20033;-75
2021/10/13 04:20:56;;;;;;;4.88;3.20;;;8.90;92.70;;;;;;5071251;28;20027;-75
2021/10/13 04:23:22;;;;;;;3.88;3.17;;;8.90;92.90;;;;;;5072389;28;20029;-75
2021/10/13 04:25:47;;;;;;;6.00;3.20;;;8.90;92.90;;;;;;5062114;28;20403;-75
2021/10/13 04:28:13;;;;;;;4.25;3.42;;;9.00;92.90;;;;;;5069580;28;20109;-76
2021/10/13 04:30:39;;;;;;;8.40;4.18;;;9.00;92.80;;;;;;5071667;28;20024;-75
2021/10/13 04:33:05;;;;;;;5.85;3.80;;;9.10;92.40;;;;;;5072790;28;20370;-76
2021/10/13 04:35:32;;;;;;;3.80;3.15;;;9.10;92.40;;;;;;5071972;28;20016;-76
2021/10/13 04:37:57;;;;;;;5.72;3.08;;;9.10;92.50;;;;;;5069922;28;20020;-75
2021/10/13 04:40:23;;;;;;;4.22;3.08;;;9.10;92.60;;;;;;5070315;28;20532;-75
2021/10/13 04:42:49;;;;;;;5.57;3.35;;;9.10;92.40;;;;;;5070734;28;20021;-75
2021/10/13 04:45:15;;;;;;;4.68;3.17;;;9.10;92.60;;;;;;5070556;28;20022;-75
2021/10/13 04:47:41;;;;;;;4.10;3.28;;;9.10;92.60;;;;;;5070601;28;20074;-75
2021/10/13 04:50:07;;;;;;;3.80;3.20;;;9.10;92.60;;;;;;5069772;28;20036;-75
2021/10/13 04:52:33;;;;;;;7.90;3.75;;;9.00;92.70;;;;;;5071700;28;20467;-75
2021/10/13 04:54:58;;;;;;;5.85;3.70;;;9.00;92.60;;;;;;5068156;28;20186;-75
2021/10/13 04:57:24;;;;;;;4.72;3.92;;;9.00;92.80;;;;;;5070532;28;20107;-75
2021/10/13 04:59:50;;;;;;;5.15;3.55;;;9.10;93.20;;;;;;5070410;28;20086;-76
2021/10/13 05:02:16;;;;;;;4.05;3.17;;;9.10;92.90;;;;;;5070212;28;20040;-76
2021/10/13 05:04:42;;;;;;;5.28;3.67;;;9.10;92.90;;;;;;5070239;28;20032;-75
2021/10/13 05:07:08;;;;;;;6.80;3.47;;;9.10;92.90;;;;;;5070738;28;20115;-82
2021/10/13 05:09:33;;;;;;;4.47;3.30;;;9.10;92.70;;;;;;5069902;28;20036;-81
2021/10/13 05:11:59;;;;;;;4.30;3.08;;;9.10;92.80;;;;;;5075331;28;20044;-78
2021/10/13 05:14:25;;;;;;;5.57;3.40;;;9.20;92.60;;;;;;5081045;28;20039;-89
2021/10/13 05:16:51;;;;;;;6.90;3.90;;;9.20;92.80;;;;;;5072169;28;20016;-80
2021/10/13 05:19:17;;;;;;;11.10;3.72;;;9.30;92.70;;;;;;5061565;28;20090;-80
2021/10/13 05:21:42;;;;;;;4.13;3.45;;;9.30;92.70;;;;;;5070709;28;20058;-79
2021/10/13 05:24:09;;;;;;;4.88;3.45;;;9.30;92.50;;;;;;5068698;28;20029;-79
2021/10/13 05:26:35;;;;;;;7.90;4.15;;;9.30;92.70;;;;;;5069411;28;20036;-76
2021/10/13 05:29:01;;;;;;;5.93;3.95;;;9.30;92.80;;;;;;5068624;28;20098;-75
2021/10/13 05:31:27;;;;;;;7.35;4.32;;;9.30;92.70;;;;;;5069716;28;20025;-75
2021/10/13 05:33:52;;;;;;;6.05;4.03;;;9.40;92.70;;;;;;5069224;28;20028;-76
2021/10/13 05:36:18;;;;;;;6.57;3.70;;;9.40;92.80;;;;;;5069637;28;20017;-75
2021/10/13 05:38:44;;;;;;;6.28;3.80;;;9.50;92.70;;;;;;5069052;28;20085;-75
2021/10/13 05:41:09;;;;;;;7.57;3.75;;;9.50;92.70;;;;;;5071135;28;20024;-75
2021/10/13 05:43:35;;;;;;;7.05;4.22;;;9.60;92.50;;;;;;5070272;28;20043;-75
2021/10/13 05:46:01;;;;;;;6.65;3.80;;;9.60;92.60;;;;;;5069683;28;20608;-75
2021/10/13 05:48:27;;;;;;;4.93;3.80;;;9.70;92.50;;;;;;5070701;28;20037;-76
2021/10/13 05:50:53;;;;;;;7.47;4.28;;;9.80;92.40;;;;;;5068291;28;20165;-75
2021/10/13 05:53:20;;;;;;;5.40;3.50;;;9.80;92.40;;;;;;5069131;28;20094;-76
2021/10/13 05:55:46;;;;;;;5.25;3.70;;;9.90;92.00;;;;;;5068707;28;20024;-76
2021/10/13 05:58:15;;;;;;;5.22;3.67;;;10.00;92.70;;;;;;5066789;28;20114;-76
2021/10/13 06:00:40;;;;;;;5.13;3.63;;;10.00;92.30;;;;;;5066545;28;20027;-76
2021/10/13 06:03:06;;;;;;;8.80;3.97;;;10.20;92.60;;;;;;5067559;28;20013;-77
2021/10/13 06:05:32;;;;;;;5.65;3.78;;;10.20;91.60;;;;;;5066384;28;20028;-76
2021/10/13 06:07:58;;;;;;;7.47;5.15;;;10.20;91.40;;;;;;5063287;28;20044;-76
2021/10/13 06:10:24;;;;;;;8.90;4.03;;;10.30;92.20;;;;;;5066267;28;20391;-76
2021/10/13 06:12:49;;;;;;;6.95;4.22;;;10.40;91.60;;;;;;5067614;28;20133;-76
2021/10/13 06:15:16;;;;;;;7.07;4.00;;;10.50;91.30;;;;;;5068529;28;20020;-76
2021/10/13 06:17:42;;;;;;;12.48;4.05;;;10.60;91.10;;;;;;5067360;28;20379;-76
2021/10/13 06:20:08;;;;;;;7.88;4.43;;;10.70;91.40;;;;;;5069269;28;20032;-76
2021/10/13 06:22:34;;;;;;;6.20;4.40;;;10.80;91.30;;;;;;5070299;28;20032;-76
2021/10/13 06:24:59;;;;;;;24.60;7.97;;;10.80;91.50;;;;;;5070087;28;20048;-75
2021/10/13 06:27:25;;;;;;;23.17;9.52;;;10.90;90.20;;;;;;5070552;28;20024;-75
2021/10/13 06:29:51;;;;;;;18.17;6.25;;;11.00;91.00;;;;;;5067277;28;20225;-76
2021/10/13 06:32:16;;;;;;;15.27;5.90;;;11.10;90.70;;;;;;5069935;28;20059;-75
2021/10/13 06:34:42;;;;;;;14.00;7.25;;;11.20;90.30;;;;;;5070393;28;20033;-75
2021/10/13 06:37:08;;;;;;;10.40;5.30;;;11.30;90.70;;;;;;5070221;28;20127;-75
2021/10/13 06:39:34;;;;;;;9.48;4.53;;;11.30;90.40;;;;;;5069872;28;20070;-75
2021/10/13 06:41:59;;;;;;;8.07;4.47;;;11.40;90.60;;;;;;5070854;28;20028;-76
2021/10/13 06:44:25;;;;;;;5.30;3.75;;;11.40;90.60;;;;;;5069715;28;20504;-76
2021/10/13 06:46:51;;;;;;;9.43;4.50;;;11.50;90.60;;;;;;5070512;28;20049;-76
2021/10/13 06:49:17;;;;;;;9.75;4.30;;;11.50;90.20;;;;;;5068507;28;20128;-75
2021/10/13 06:51:43;;;;;;;6.75;4.10;;;11.60;89.50;;;;;;5068991;28;20117;-75
2021/10/13 06:54:09;;;;;;;7.38;3.88;;;11.60;89.50;;;;;;5069798;28;20482;-76
2021/10/13 06:56:36;;;;;;;6.43;4.22;;;11.60;88.90;;;;;;5070546;28;20028;-76
2021/10/13 06:59:01;;;;;;;6.15;3.95;;;11.70;89.10;;;;;;5066107;28;20109;-78
2021/10/13 07:01:27;;;;;;;8.45;3.90;;;11.80;88.40;;;;;;5065249;28;20047;-75
2021/10/13 07:03:53;;;;;;;9.07;4.05;;;11.90;89.00;;;;;;5068877;28;20045;-76
2021/10/13 07:06:19;;;;;;;7.15;3.95;;;12.00;87.70;;;;;;5069458;28;20387;-74
2021/10/13 07:08:44;;;;;;;9.35;3.92;;;12.10;87.70;;;;;;5069172;28;20029;-77
2021/10/13 07:11:10;;;;;;;9.70;3.35;;;12.20;87.50;;;;;;5068038;28;20174;-77
2021/10/13 07:13:37;;;;;;;5.55;3.20;;;12.30;87.10;;;;;;5069011;28;20405;-75
2021/10/13 07:16:03;;;;;;;4.60;3.28;;;12.30;86.70;;;;;;5070354;28;20040;-75
2021/10/13 07:18:28;;;;;;;7.78;3.58;;;12.40;86.40;;;;;;5066459;28;20051;-75
2021/10/13 07:20:54;;;;;;;4.10;3.20;;;12.50;87.60;;;;;;5069347;28;20060;-75
2021/10/13 07:23:20;;;;;;;4.53;3.30;;;12.70;86.70;;;;;;5061045;28;20030;-77
2021/10/13 07:25:46;;;;;;;6.65;3.50;;;12.90;88.00;;;;;;5072283;28;20074;-77
2021/10/13 07:28:13;;;;;;;4.18;3.35;;;13.10;87.30;;;;;;5072987;28;20390;-77
2021/10/13 07:30:40;;;;;;;5.20;3.35;;;13.20;86.60;;;;;;5072135;28;20028;-77
2021/10/13 07:33:05;;;;;;;6.25;3.10;;;13.40;84.80;;;;;;5071852;28;20491;-76
2021/10/13 07:35:32;;;;;;;3.70;3.00;;;13.60;82.20;;;;;;5073319;28;20025;-77
2021/10/13 07:37:58;;;;;;;4.85;3.05;;;13.90;80.60;;;;;;5071471;28;20371;-77
2021/10/13 07:40:25;;;;;;;7.70;2.90;;;14.30;78.80;;;;;;5071989;28;20029;-77
2021/10/13 07:42:51;;;;;;;6.82;2.80;;;14.70;75.90;;;;;;5073297;28;20024;-77
2021/10/13 07:45:18;;;;;;;7.90;2.97;;;15.00;76.50;;;;;;5073249;28;20039;-77
2021/10/13 07:47:44;;;;;;;4.63;2.90;;;15.10;74.50;;;;;;5072476;28;20084;-76
2021/10/13 07:50:12;;;;;;;7.38;3.15;;;15.20;73.70;;;;;;5071936;28;20028;-77
2021/10/13 07:52:37;;;;;;;7.65;3.30;;;15.20;72.60;;;;;;5071422;28;20478;-77
2021/10/13 07:55:04;;;;;;;4.45;2.80;;;15.20;73.10;;;;;;5068663;28;20074;-77
2021/10/13 07:57:30;;;;;;;3.88;2.70;;;15.20;74.30;;;;;;5073070;28;20020;-77
2021/10/13 07:59:56;;;;;;;3.30;3.00;;;15.30;75.60;;;;;;5071225;28;20085;-77
2021/10/13 08:02:22;;;;;;;3.80;2.72;;;15.30;72.80;;;;;;5072837;28;20083;-77
2021/10/13 08:04:47;;;;;;;3.35;2.42;;;15.20;72.10;;;;;;5071339;28;20024;-77
2021/10/13 08:07:13;;;;;;;7.70;2.60;;;15.10;72.80;;;;;;5071416;28;20051;-77
2021/10/13 08:09:39;;;;;;;6.70;2.75;;;15.00;72.60;;;;;;5069501;28;20127;-77
2021/10/13 08:12:05;;;;;;;6.30;2.58;;;14.80;73.30;;;;;;5073202;28;20029;-77
2021/10/13 08:14:30;;;;;;;4.07;2.67;;;14.40;76.10;;;;;;5072393;28;20024;-77
2021/10/13 08:16:57;;;;;;;5.57;2.83;;;14.40;74.50;;;;;;5073073;28;20127;-77
2021/10/13 08:19:23;;;;;;;4.13;2.78;;;14.30;75.30;;;;;;5071487;28;20070;-77
2021/10/13 08:21:49;;;;;;;4.20;3.20;;;14.20;75.50;;;;;;5072531;28;20028;-76
2021/10/13 08:24:15;;;;;;;3.53;2.80;;;14.20;75.90;;;;;;5071620;28;20025;-77
2021/10/13 08:26:41;;;;;;;5.85;3.28;;;14.10;75.90;;;;;;5070311;28;20491;-79
2021/10/13 08:29:07;;;;;;;5.22;2.35;;;14.00;76.40;;;;;;5068154;28;20035;-77
2021/10/13 08:31:32;;;;;;;2.97;2.20;;;14.00;75.60;;;;;;5070473;28;20070;-77
2021/10/13 08:33:58;;;;;;;3.97;2.22;;;14.10;75.50;;;;;;5069295;28;20024;-77
2021/10/13 08:36:24;;;;;;;4.85;2.30;;;14.20;76.00;;;;;;5067892;28;20107;-77
2021/10/13 08:38:50;;;;;;;2.72;1.98;;;14.30;75.10;;;;;;5069306;28;20028;-77
2021/10/13 08:41:17;;;;;;;2.53;1.98;;;14.40;74.60;;;;;;5069760;28;20016;-77
2021/10/13 08:43:44;;;;;;;2.25;1.88;;;14.50;73.60;;;;;;5069730;28;20067;-76
2021/10/13 08:46:11;;;;;;;2.13;1.77;;;14.50;73.60;;;;;;5069961;28;20118;-77
2021/10/13 08:48:37;;;;;;;2.35;1.55;;;14.60;73.40;;;;;;5069636;28;20033;-78
2021/10/13 08:51:03;;;;;;;4.15;1.95;;;14.60;72.60;;;;;;5069216;28;20070;-78
2021/10/13 08:53:28;;;;;;;1.40;1.30;;;14.60;73.10;;;;;;5069407;28;20040;-77
2021/10/13 08:55:55;;;;;;;3.92;1.60;;;14.70;71.30;;;;;;5068504;28;20024;-76
2021/10/13 08:58:26;;;;;;;2.38;1.58;;;14.80;71.90;;;;;;5069678;28;20111;-77
2021/10/13 09:01:13;;;;;;;3.78;1.60;;;14.80;70.50;;;;;;5069546;28;20032;-78
2021/10/13 09:03:41;;;;;;;2.00;1.80;;;14.90;70.30;;;;;;5069244;28;20564;-77
2021/10/13 09:06:26;;;;;;;3.10;1.92;;;14.90;70.30;;;;;;5068203;28;20757;-78
2021/10/13 09:09:01;;;;;;;1.92;1.73;;;15.00;71.10;;;;;;5068478;28;20041;-77
2021/10/13 09:11:44;;;;;;;2.00;1.65;;;15.00;70.50;;;;;;5058501;28;20372;-76
2021/10/13 09:14:18;;;;;;;2.42;1.65;;;15.00;68.90;;;;;;5065542;28;20074;-77
2021/10/13 09:17:04;;;;;;;5.05;1.60;;;15.00;70.60;;;;;;5068098;28;20021;-77
2021/10/13 09:19:33;;;;;;;2.85;1.58;;;15.00;70.90;;;;;;5068483;28;20510;-77
2021/10/13 09:22:01;;;;;;;1.73;1.38;;;15.10;69.40;;;;;;5060825;28;20025;-76
2021/10/13 09:24:29;;;;;;;1.95;1.50;;;15.10;69.50;;;;;;5067420;28;20074;-78
2021/10/13 09:26:56;;;;;;;1.25;1.15;;;15.20;69.40;;;;;;5069946;28;20112;-78
2021/10/13 09:29:22;;;;;;;3.88;1.52;;;15.40;69.80;;;;;;5069964;28;20036;-77
2021/10/13 09:32:00;;;;;;;2.35;1.23;;;15.40;68.10;;;;;;5070593;28;20024;-76
2021/10/13 09:34:26;;;;;;;3.22;1.30;;;15.50;67.80;;;;;;5069199;28;20020;-77
2021/10/13 09:37:01;;;;;;;1.80;1.17;;;15.50;68.30;;;;;;5069362;28;20055;-78
2021/10/13 09:39:30;;;;;;;1.15;0.90;;;15.50;65.90;;;;;;5068767;28;20028;-77
2021/10/13 09:42:04;;;;;;;1.98;1.27;;;15.50;64.70;;;;;;5060153;28;20028;-78
2021/10/13 09:44:58;;;;;;;1.17;1.08;;;15.50;65.30;;;;;;5068534;28;20055;-77
2021/10/13 09:47:35;;;;;;;2.15;1.10;;;15.50;65.00;;;;;;5060654;28;20376;-80
2021/10/13 09:50:09;;;;;;;0.80;0.80;;;15.50;65.30;;;;;;5068912;28;20028;-80
2021/10/13 09:52:34;;;;;;;1.55;1.10;;;15.60;65.20;;;;;;5067870;28;20078;-77
2021/10/13 09:55:08;;;;;;;1.98;1.00;;;15.70;66.20;;;;;;5062005;28;20562;-76
2021/10/13 09:57:48;;;;;;;0.93;0.93;;;15.70;63.10;;;;;;5068329;28;20016;-78
2021/10/13 10:00:25;;;;;;;1.85;1.30;;;15.80;65.70;;;;;;5062863;28;20597;-77
2021/10/13 10:02:54;;;;;;;1.40;1.30;;;15.90;65.40;;;;;;5068555;28;20047;-77
2021/10/13 10:05:33;;;;;;;2.80;1.15;;;16.00;65.80;;;;;;5068464;28;20120;-77
2021/10/13 10:08:04;;;;;;;1.42;1.05;;;16.00;64.60;;;;;;5066854;28;20078;-77
2021/10/13 10:10:30;;;;;;;2.63;0.98;;;16.10;64.10;;;;;;5068069;28;20020;-79
2021/10/13 10:13:00;;;;;;;1.00;0.90;;;16.10;64.10;;;;;;5068398;28;20491;-76
2021/10/13 10:15:40;;;;;;;2.53;0.95;;;16.00;63.70;;;;;;5068451;28;20394;-80
2021/10/13 10:18:33;;;;;;;1.63;0.93;;;16.10;64.00;;;;;;5061870;28;20020;-77
2021/10/13 10:21:18;;;;;;;0.88;0.82;;;16.10;60.50;;;;;;5064562;28;20037;-77
2021/10/13 10:23:45;;;;;;;1.02;0.93;;;16.10;59.60;;;;;;5068223;28;20025;-76
2021/10/13 10:26:25;;;;;;;3.88;0.90;;;16.10;62.20;;;;;;5069033;28;20031;-83
2021/10/13 10:28:54;;;;;;;1.00;0.90;;;16.10;62.30;;;;;;5067183;28;20060;-84
2021/10/13 10:31:28;;;;;;;1.75;0.90;;;16.20;58.40;;;;;;5069188;28;20103;-77
2021/10/13 10:34:03;;;;;;;1.20;0.73;;;16.20;59.40;;;;;;5066461;28;20830;-81
2021/10/13 10:36:35;;;;;;;0.88;0.73;;;16.30;61.90;;;;;;5067384;28;20035;-78
2021/10/13 10:39:06;;;;;;;1.65;0.88;;;16.30;60.70;;;;;;5062577;28;20103;-76
2021/10/13 10:41:58;;;;;;;2.80;1.10;;;16.40;62.30;;;;;;5034793;28;20056;-76
2021/10/13 10:44:26;;;;;;;0.60;0.60;;;16.60;59.80;;;;;;5062520;28;20059;-77
2021/10/13 10:47:08;;;;;;;1.00;0.93;;;16.50;57.50;;;;;;5068154;28;20048;-77
2021/10/13 10:49:46;;;;;;;2.35;0.95;;;16.60;58.10;;;;;;5065136;28;20044;-77
2021/10/13 10:52:26;;;;;;;0.80;0.80;;;16.60;58.00;;;;;;5055336;28;20035;-78
2021/10/13 10:55:05;;;;;;;1.15;0.90;;;16.60;59.90;;;;;;5063835;28;20047;-77
2021/10/13 10:57:35;;;;;;;1.48;0.80;;;16.40;59.10;;;;;;5064991;28;20456;-78
2021/10/13 11:00:05;;;;;;;1.75;0.80;;;16.60;59.80;;;;;;5071040;28;20032;-77
2021/10/13 11:02:31;;;;;;;1.30;0.88;;;16.70;59.10;;;;;;5069533;28;20299;-77
2021/10/13 11:05:11;;;;;;;1.13;0.93;;;16.70;59.30;;;;;;5070482;28;20082;-78
2021/10/13 11:07:38;;;;;;;1.45;0.90;;;16.90;58.80;;;;;;5055351;28;20024;-78
2021/10/13 11:10:09;;;;;;;1.08;0.73;;;17.00;57.50;;;;;;5067127;28;20811;-76
2021/10/13 11:12:49;;;;;;;0.75;0.75;;;16.90;58.30;;;;;;5072103;28;20021;-86
2021/10/13 11:15:20;;;;;;;1.58;0.80;;;16.90;56.80;;;;;;5068288;28;20074;-85
2021/10/13 11:17:46;;;;;;;1.50;0.98;;;17.10;56.60;;;;;;5071815;28;20423;-82
2021/10/13 11:20:14;;;;;;;2.17;1.05;;;17.20;57.10;;;;;;5070097;28;20055;-77
2021/10/13 11:22:40;;;;;;;3.05;0.80;;;17.30;57.60;;;;;;5068531;28;20107;-77
2021/10/13 11:25:13;;;;;;;1.25;1.10;;;17.40;56.00;;;;;;5068807;28;20699;-78
2021/10/13 11:27:40;;;;;;;1.48;1.00;;;17.20;56.00;;;;;;5084282;28;20028;-77
2021/10/13 11:30:29;;;;;;;0.82;0.73;;;17.10;55.70;;;;;;5069532;28;20039;-76
2021/10/13 11:32:55;;;;;;;0.98;0.80;;;17.20;55.50;;;;;;5070424;28;20024;-77
2021/10/13 11:35:21;;;;;;;2.05;1.00;;;17.10;57.80;;;;;;5062617;28;20032;-77
2021/10/13 11:37:49;;;;;;;1.52;1.00;;;17.30;58.30;;;;;;5070536;28;20021;-77
2021/10/13 11:40:16;;;;;;;0.93;0.93;;;17.50;56.20;;;;;;5062820;28;20123;-77
2021/10/13 11:42:42;;;;;;;1.00;0.90;;;17.60;56.30;;;;;;5070143;28;20023;-76
2021/10/13 11:45:19;;;;;;;0.85;0.85;;;17.80;55.90;;;;;;5070739;28;20085;-76
2021/10/13 11:47:46;;;;;;;1.27;0.77;;;18.00;55.10;;;;;;5070507;28;20525;-76
2021/10/13 11:50:13;;;;;;;1.10;1.00;;;18.10;55.90;;;;;;5070445;28;20758;-77
2021/10/13 11:52:41;;;;;;;1.33;1.00;;;18.20;57.50;;;;;;5069343;28;20024;-77
2021/10/13 11:55:09;;;;;;;1.13;0.93;;;18.30;54.80;;;;;;5069117;28;20103;-77
2021/10/13 11:57:36;;;;;;;2.92;0.80;;;18.30;54.50;;;;;;5069933;28;20021;-76
2021/10/13 12:00:14;;;;;;;0.93;0.88;;;18.50;53.50;;;;;;5069064;28;20025;-76
2021/10/13 12:03:03;;;;;;;2.05;0.93;;;18.90;52.90;;;;;;5070797;28;20031;-75
2021/10/13 12:05:35;;;;;;;0.70;0.68;;;21.60;51.00;;;;;;5067362;28;20040;-76
2021/10/13 12:08:07;;;;;;;2.60;1.00;;;25.50;45.80;;;;;;5057816;28;20032;-75
2021/10/13 12:10:39;;;;;;;;;;;26.80;43.30;;;;;;5068756;28;20099;-76
2021/10/13 12:13:15;;;;;;;0.85;0.85;;;26.80;42.80;;;;;;5069659;28;19940;-76
2021/10/13 12:15:43;;;;;;;1.30;0.82;;;27.80;42.00;;;;;;5067629;28;20024;-76
2021/10/13 12:18:14;;;;;;;0.70;0.70;;;28.50;41.10;;;;;;5069033;28;20372;-76
2021/10/13 12:20:41;;;;;;;1.30;0.90;;;29.30;39.40;;;;;;5071546;28;20012;-75
2021/10/13 12:23:24;;;;;;;0.70;0.70;;;28.60;39.40;;;;;;5069091;28;20112;-75
2021/10/13 12:25:50;;;;;;;0.63;0.63;;;29.00;38.90;;;;;;5068379;28;20059;-75
2021/10/13 12:28:25;;;;;;;1.15;0.77;;;29.90;39.00;;;;;;5063505;28;20125;-76
2021/10/13 12:31:04;;;;;;;1.40;0.90;;;30.20;37.60;;;;;;5064569;28;20024;-75
2021/10/13 12:33:42;;;;;;;0.60;0.60;;;28.10;38.90;;;;;;5059286;28;20560;-77
2021/10/13 12:36:30;;;;;;;0.77;0.75;;;28.50;38.70;;;;;;5066411;28;20036;-79
2021/10/13 12:38:58;;;;;;;0.85;0.80;;;29.30;38.90;;;;;;5069205;28;20059;-77
2021/10/13 12:41:31;;;;;;;2.20;0.80;;;29.80;37.60;;;;;;5067024;28;20021;-75
2021/10/13 12:43:57;;;;;;;1.08;0.90;;;29.80;37.60;;;;;;5067722;28;20577;-76
2021/10/13 12:46:33;;;;;;;1.00;0.73;;;29.50;36.90;;;;;;5069278;28;20127;-75
2021/10/13 12:49:11;;;;;;;0.70;0.70;;;28.30;38.50;;;;;;5068576;28;20040;-76
2021/10/13 12:52:01;;;;;;;1.70;0.85;;;29.10;37.50;;;;;;5038034;28;20049;-77
2021/10/13 12:54:31;;;;;;;0.75;0.75;;;30.10;36.30;;;;;;5066960;28;20028;-76
2021/10/13 12:56:58;;;;;;;1.27;1.17;;;30.20;36.70;;;;;;5070179;28;20032;-82
2021/10/13 12:59:24;;;;;;;0.93;0.77;;;31.70;36.50;;;;;;5067547;28;20046;-77
2021/10/13 13:01:51;;;;;;;1.73;0.70;;;32.10;36.10;;;;;;5066173;28;20029;-77